Hlavní strana
METAR-TAF:

METAR-TAF

Letiště :

Perry-Foley Airport

Perry, Florida, Spojené státy americké

zeměpisná šířka: 30-04-19N, zeměpisná délka: 083-34-25W, výška: 13 m

Aktuální stav počasí

Zpráva byla vytvořena před 29 minutami, v 10:35 UTC
Bezvětří
Teplota 19°C
Vlhkost vzduchu 94%
Tlak 1021 hPa
Viditelnost: 11.3 km
Jasno

METAR: K40J 241035Z AUTO 00000KT 7SM CLR 19/18 A3015 RMK AO2 T01850180

Čas: 07:04 (11:04 UTC)


TAF: chybějící

Stav a předpovědi počasí z více než 4 000 letišť (zprávy METAR a TAF).

Červené a žluté tečky na mapě představují dostupné meteorologické stanice.

Když kurzor umístíte na tečku, zobrazí se název stanice.

Pak kliknutím zobrazíte stav a předpověď počasí.

Chcete-li změnit mapu, kliknutím na zelené tlačítko se znaménkem +mapu přiblížíte, kliknutím na zelené tlačítko se znaménkem – mapu oddálíte a kliknutím na zelené šipky přejdete na sousední mapy.


METAR-TAF: